Time;durP1;ratioP1;P1;durP2;ratioP2;P2;SDS_P1;SDS_P2;PMS_P1;PMS_P2;Temp;Humidity;BMP_temperature;BMP_pressure;BME280_temperature;BME280_humidity;BME280_pressure;Samples;Min_cycle;Max_cycle;Signal;HPM_P1;HPM_P2
2023/07/26 00:18:21;;;;;;;3.03;1.98;;;;;;;22.67;57.78;99122.53;41620296;28;20042;-84
2023/07/26 00:38:22;;;;;;;3.13;2.13;;;;;;;23.16;56.79;99071.66;41656699;28;20048;-84
2023/07/26 00:58:25;;;;;;;3.20;1.75;;;;;;;23.40;55.95;99003.97;41653561;28;20522;-80
2023/07/26 01:18:25;;;;;;;4.20;1.75;;;;;;;23.54;55.66;98999.84;41653074;28;20049;-86
2023/07/26 01:38:26;;;;;;;2.05;1.65;;;;;;;23.63;55.71;98962.66;41656035;28;21270;-86
2023/07/26 01:58:27;;;;;;;2.60;1.60;;;;;;;23.65;55.33;98968.59;41655133;28;20034;-81
2023/07/26 02:18:28;;;;;;;3.30;1.90;;;;;;;23.66;55.23;99001.16;41661257;28;20574;-83
2023/07/26 02:38:29;;;;;;;2.90;1.90;;;;;;;23.72;54.83;99012.88;41644019;28;20527;-86
2023/07/26 02:58:30;;;;;;;2.85;1.92;;;;;;;23.73;54.13;99025.91;41635661;28;20029;-82
2023/07/26 03:18:32;;;;;;;4.35;2.03;;;;;;;23.78;54.17;99022.75;41628020;28;20050;-84
2023/07/26 03:38:33;;;;;;;3.40;2.13;;;;;;;23.75;54.23;99009.88;41643664;28;20049;-84
2023/07/26 03:58:33;;;;;;;3.65;2.65;;;;;;;23.65;54.60;99063.72;41642786;28;20042;-83
2023/07/26 04:18:34;;;;;;;3.40;2.70;;;;;;;23.71;54.29;99078.09;41663203;28;20065;-85
2023/07/26 04:38:34;;;;;;;4.60;2.33;;;;;;;23.10;53.36;99110.06;41603500;28;20088;-80
2023/07/26 04:58:35;;;;;;;7.57;1.70;;;;;;;23.06;52.11;99098.22;41606851;28;20041;-81
2023/07/26 05:18:35;;;;;;;1.95;1.15;;;;;;;22.74;50.40;99097.16;41651633;28;20045;-80
2023/07/26 05:38:35;;;;;;;3.33;1.10;;;;;;;22.79;50.32;99112.47;41618779;28;20541;-81
2023/07/26 05:58:36;;;;;;;2.47;1.20;;;;;;;22.79;50.12;99133.59;41632425;28;20045;-81
2023/07/26 06:18:37;;;;;;;1.80;1.10;;;;;;;23.24;49.27;99142.16;41625954;28;20041;-83
2023/07/26 06:38:38;;;;;;;4.53;1.55;;;;;;;23.41;48.82;99143.84;41633667;28;20485;-83
2023/07/26 06:58:38;;;;;;;2.15;1.60;;;;;;;23.55;48.73;99178.53;41616304;28;20049;-84
2023/07/26 07:18:39;;;;;;;2.00;1.30;;;;;;;23.66;49.63;99216.00;41623656;28;20033;-86
2023/07/26 07:38:40;;;;;;;2.60;1.20;;;;;;;23.79;48.93;99246.41;41620739;28;20038;-77
2023/07/26 07:58:41;;;;;;;1.95;1.10;;;;;;;23.77;49.01;99272.22;41584749;28;20049;-80
2023/07/26 08:18:41;;;;;;;4.18;1.00;;;;;;;23.87;49.24;99296.66;41635477;28;20374;-80
2023/07/26 08:38:42;;;;;;;2.25;1.60;;;;;;;24.08;49.24;99300.69;41642792;28;20056;-78
2023/07/26 08:58:42;;;;;;;1.90;1.30;;;;;;;24.29;48.85;99329.28;41678750;28;20527;-80
2023/07/26 09:19:15;;;;;;;2.50;1.77;;;;;;;24.37;48.53;99358.38;41674432;28;20408;-76
2023/07/26 09:39:17;;;;;;;1.98;1.30;;;;;;;24.33;47.73;99343.00;41471284;28;20050;-80
2023/07/26 09:59:18;;;;;;;1.65;1.20;;;;;;;23.50;49.91;99334.91;41658413;28;20041;-81
2023/07/26 10:19:20;;;;;;;1.33;1.23;;;;;;;23.35;49.49;99353.16;41657526;28;20045;-85
2023/07/26 10:39:35;;;;;;;1.83;1.10;;;;;;;23.18;49.02;99376.03;41661269;28;20049;-80
2023/07/26 10:59:50;;;;;;;2.15;1.02;;;;;;;23.24;48.96;99388.59;41645173;28;20128;-79
2023/07/26 11:19:50;;;;;;;2.63;1.30;;;;;;;23.39;47.63;99417.91;41639504;28;20065;-79
2023/07/26 11:40:10;;;;;;;1.20;1.10;;;;;;;23.19;47.74;99406.72;41622862;28;20045;-77
2023/07/26 12:00:13;;;;;;;1.30;1.20;;;;;;;23.20;47.73;99416.28;41615877;28;20042;-78
2023/07/26 12:20:13;;;;;;;2.03;1.40;;;;;;;23.11;47.26;99422.50;41625568;28;20045;-78
2023/07/26 12:40:13;;;;;;;2.70;1.05;;;;;;;23.10;47.07;99442.78;41656975;28;20041;-80
2023/07/26 13:00:15;;;;;;;0.65;0.65;;;;;;;23.59;45.99;99415.03;41626678;28;20056;-77
2023/07/26 13:20:16;;;;;;;0.47;0.40;;;;;;;23.41;46.22;99415.94;41625613;28;20068;-76
2023/07/26 13:40:18;;;;;;;0.63;0.40;;;;;;;23.26;46.27;99436.81;41603445;28;20167;-76
2023/07/26 14:00:19;;;;;;;1.60;0.40;;;;;;;23.70;45.92;99427.94;41619751;28;20065;-77
2023/07/26 14:20:19;;;;;;;0.95;0.20;;;;;;;24.13;42.19;99428.81;41583076;28;20053;-75
2023/07/26 14:40:21;;;;;;;0.57;0.20;;;;;;;24.35;39.99;99436.28;41579430;28;20049;-74
2023/07/26 15:00:21;;;;;;;0.55;0.05;;;;;;;24.50;39.30;99471.69;41605018;28;20085;-76
2023/07/26 15:20:22;;;;;;;0.50;0.30;;;;;;;24.59;39.00;99493.69;41584521;28;20124;-81
2023/07/26 15:40:22;;;;;;;1.17;0.50;;;;;;;24.86;40.33;99534.16;41630574;28;20042;-81
2023/07/26 16:00:23;;;;;;;0.88;0.40;;;;;;;25.34;38.08;99539.59;41603425;28;20045;-78
2023/07/26 16:20:24;;;;;;;1.45;0.40;;;;;;;25.20;37.73;99562.31;41616586;28;20189;-79
2023/07/26 16:40:25;;;;;;;1.42;0.43;;;;;;;24.99;37.59;99566.28;41565595;28;20116;-78
2023/07/26 17:00:27;;;;;;;1.25;1.15;;;;;;;24.92;37.83;99592.56;41567813;28;20057;-77
2023/07/26 17:20:28;;;;;;;0.57;0.57;;;;;;;24.65;38.35;99630.69;41591375;28;20362;-75
2023/07/26 17:40:33;;;;;;;1.65;0.77;;;;;;;24.47;38.85;99659.91;41662921;28;20046;-80
2023/07/26 18:00:34;;;;;;;2.75;1.52;;;;;;;24.41;39.32;99671.13;41640911;28;20068;-79
2023/07/26 18:20:35;;;;;;;0.90;0.55;;;;;;;24.10;38.80;99717.38;41654925;28;20045;-78
2023/07/26 18:40:36;;;;;;;0.40;0.40;;;;;;;23.86;39.21;99747.06;41594631;28;20063;-73
2023/07/26 19:00:37;;;;;;;0.57;0.45;;;;;;;23.60;39.16;99787.47;41578661;28;20061;-71
2023/07/26 19:20:47;;;;;;;1.75;0.70;;;;;;;23.39;39.66;99808.91;41566884;28;20044;-74
2023/07/26 19:41:01;;;;;;;3.50;1.60;;;;;;;22.64;40.38;99814.16;41599972;28;20049;-81
2023/07/26 20:01:05;;;;;;;1.73;1.00;;;;;;;22.47;40.67;99832.38;41621660;28;20046;-76
2023/07/26 20:21:07;;;;;;;1.08;0.80;;;;;;;22.05;41.14;99833.47;41608940;28;20542;-77
2023/07/26 20:41:08;;;;;;;0.80;0.80;;;;;;;21.98;42.28;99881.59;41623933;28;20037;-76
2023/07/26 21:01:10;;;;;;;1.20;1.00;;;;;;;21.91;42.40;99892.69;41639425;28;20128;-76
2023/07/26 21:21:11;;;;;;;2.53;0.93;;;;;;;22.15;42.24;99915.19;41641181;28;20049;-77
2023/07/26 21:41:12;;;;;;;1.90;1.02;;;;;;;22.26;42.08;99939.81;41653385;28;20053;-78
2023/07/26 22:01:12;;;;;;;1.05;0.80;;;;;;;22.28;42.73;99933.41;41644446;28;20049;-77
2023/07/26 22:21:13;;;;;;;1.15;0.93;;;;;;;22.18;43.04;99943.94;41641570;28;20033;-77
2023/07/26 22:41:13;;;;;;;3.28;1.00;;;;;;;22.04;42.47;99960.97;41648940;28;20045;-78
2023/07/26 23:01:14;;;;;;;1.25;0.88;;;;;;;22.01;42.40;99977.06;41646771;28;20118;-78
2023/07/26 23:21:16;;;;;;;2.15;1.10;;;;;;;21.94;41.69;99980.38;41644120;28;20493;-78
2023/07/26 23:41:17;;;;;;;2.85;1.00;;;;;;;21.75;41.79;99982.81;41642838;28;20037;-79
